Time;durP1;ratioP1;P1;durP2;ratioP2;P2;SDS_P1;SDS_P2;PMS_P1;PMS_P2;Temp;Humidity;BMP_temperature;BMP_pressure;BME280_temperature;BME280_humidity;BME280_pressure;Samples;Min_cycle;Max_cycle;Signal;HPM_P1;HPM_P2
2022/01/30 00:01:59;;;;;;;32.27;5.77;;;;;;;6.59;100.00;102033.91;5006098;28;20185;-74
2022/01/30 00:04:25;;;;;;;45.80;6.90;;;;;;;6.15;100.00;101952.81;5004708;28;20636;-74
2022/01/30 00:06:50;;;;;;;29.90;6.57;;;;;;;6.36;100.00;101979.25;5010946;28;20196;-74
2022/01/30 00:09:19;;;;;;;27.17;6.47;;;;;;;6.67;100.00;102044.72;4991720;28;20223;-69
2022/01/30 00:11:57;;;;;;;35.50;6.63;;;;;;;5.88;100.00;101914.41;5007375;28;20188;-74
2022/01/30 00:14:25;;;;;;;37.80;6.77;;;;;;;6.59;100.00;102036.59;5005401;28;20494;-69
2022/01/30 00:17:04;;;;;;;36.30;7.43;;;;;;;6.40;100.00;101973.50;5008960;28;20482;-71
2022/01/30 00:19:44;;;;;;;26.63;6.30;;;;;;;6.57;100.00;102067.91;5009989;28;20428;-70
2022/01/30 00:22:18;;;;;;;29.47;6.27;;;;;;;6.78;100.00;102039.22;5009490;28;21013;-75
2022/01/30 00:24:53;;;;;;;45.30;7.83;;;;;;;6.11;100.00;101953.09;5009156;28;20462;-73
2022/01/30 00:27:27;;;;;;;33.67;6.43;;;;;;;6.75;100.00;102042.19;5010429;28;20439;-70
2022/01/30 00:29:53;;;;;;;33.53;7.30;;;;;;;6.37;100.00;101973.81;5008896;28;20466;-74
2022/01/30 00:32:19;;;;;;;42.10;7.73;;;;;;;5.91;100.00;101923.94;5003490;28;20462;-72
2022/01/30 00:34:44;;;;;;;38.53;7.80;;;;;;;6.70;100.00;102048.91;5014505;28;20459;-71
2022/01/30 00:37:10;;;;;;;31.57;6.90;;;;;;;6.69;100.00;102047.25;5007083;28;20188;-70
2022/01/30 00:39:35;;;;;;;31.27;7.93;;;;;;;6.43;100.00;101996.38;5010882;28;20176;-77
2022/01/30 00:42:01;;;;;;;39.93;8.20;;;;;;;6.21;100.00;101982.38;5014333;28;20458;-70
2022/01/30 00:44:27;;;;;;;32.77;6.97;;;;;;;5.76;100.00;101905.72;5010777;28;20208;-69
2022/01/30 00:46:55;;;;;;;28.50;7.30;;;;;;;6.49;100.00;102057.94;5009273;28;20939;-73
2022/01/30 00:49:20;;;;;;;38.30;7.27;;;;;;;6.56;100.00;102056.38;5017596;28;20204;-70
2022/01/30 00:51:46;;;;;;;34.40;8.10;;;;;;;6.57;100.00;102049.25;5010037;28;20805;-74
2022/01/30 00:54:12;;;;;;;36.60;8.03;;;;;;;6.55;100.00;102061.88;5012699;28;20664;-73
2022/01/30 00:56:37;;;;;;;31.97;7.13;;;;;;;6.35;100.00;102029.06;5015006;28;20192;-68
2022/01/30 00:59:06;;;;;;;27.80;7.63;;;;;;;6.64;100.00;102065.50;5014235;28;20268;-71
2022/01/30 01:01:32;;;;;;;28.00;6.70;;;;;;;6.57;100.00;102092.72;5012311;28;20193;-70
2022/01/30 01:03:58;;;;;;;31.43;6.40;;;;;;;6.53;100.00;102085.16;5016885;28;20455;-69
2022/01/30 01:06:24;;;;;;;37.67;7.13;;;;;;;6.53;100.00;102077.16;5013183;28;20449;-72
2022/01/30 01:08:59;;;;;;;32.47;6.73;;;;;;;5.87;100.00;101948.19;5013238;28;20236;-69
2022/01/30 01:24:10;;;;;;;25.53;5.23;;;;;;;6.13;100.00;102030.19;5015344;28;21636;-72
2022/01/30 01:26:37;;;;;;;40.43;6.67;;;;;;;6.43;100.00;102087.84;5015110;28;20981;-73
2022/01/30 01:29:04;;;;;;;26.93;5.87;;;;;;;6.44;100.00;102086.00;5018357;28;20289;-75
2022/01/30 01:31:30;;;;;;;23.37;5.50;;;;;;;6.22;100.00;102087.09;5014001;28;20533;-72
2022/01/30 01:34:14;;;;;;;23.53;6.17;;;;;;;6.44;100.00;102131.31;5013613;28;20512;-75
2022/01/30 01:36:39;;;;;;;22.60;5.60;;;;;;;6.17;100.00;102084.03;5011779;28;20732;-72
2022/01/30 01:39:05;;;;;;;28.53;5.90;;;;;;;6.41;100.00;102150.25;5016124;28;20856;-72
2022/01/30 01:41:32;;;;;;;17.83;5.20;;;;;;;5.80;100.00;102018.09;5015038;28;20242;-74
2022/01/30 01:43:59;;;;;;;33.70;5.40;;;;;;;5.76;100.00;102024.69;5014357;28;20232;-71
2022/01/30 01:46:31;;;;;;;31.30;7.20;;;;;;;6.31;100.00;102105.78;5014357;28;20505;-73
2022/01/30 01:48:57;;;;;;;34.70;6.70;;;;;;;6.05;100.00;102070.03;5012044;28;20963;-73
2022/01/30 01:51:25;;;;;;;28.50;6.10;;;;;;;6.07;100.00;102090.19;5013189;28;20535;-73
2022/01/30 01:53:55;;;;;;;30.47;6.17;;;;;;;5.87;100.00;102072.47;5019373;28;20243;-73
2022/01/30 01:56:22;;;;;;;41.10;6.80;;;;;;;6.50;100.00;102154.75;5011395;28;20430;-73
2022/01/30 01:58:48;;;;;;;33.60;6.10;;;;;;;6.33;100.00;102143.81;5016476;28;20435;-73
2022/01/30 02:01:14;;;;;;;35.27;7.00;;;;;;;6.33;100.00;102114.50;5011954;28;20439;-74
2022/01/30 02:03:40;;;;;;;40.80;7.90;;;;;;;5.99;100.00;102092.72;5016633;28;20837;-71
2022/01/30 02:06:10;;;;;;;25.53;6.90;;;;;;;6.47;100.00;102161.19;5013530;28;20220;-72
2022/01/30 02:08:39;;;;;;;27.20;6.97;;;;;;;6.43;100.00;102153.63;5017838;28;20957;-72
2022/01/30 02:24:29;;;;;;;35.93;6.50;;;;;;;6.44;100.00;102188.13;5014451;28;20469;-73
2022/01/30 02:26:54;;;;;;;35.17;7.17;;;;;;;6.23;100.00;102145.59;5015188;28;20488;-73
2022/01/30 02:29:20;;;;;;;41.03;8.20;;;;;;;6.52;100.00;102184.78;5011864;28;20509;-73
2022/01/30 02:31:46;;;;;;;37.30;7.60;;;;;;;6.45;100.00;102168.50;5012542;28;20606;-74
2022/01/30 02:34:12;;;;;;;37.97;7.90;;;;;;;6.57;100.00;102182.53;4998757;28;21600;-73
2022/01/30 02:36:49;;;;;;;40.07;8.00;;;;;;;6.62;100.00;102169.59;5016811;28;20228;-73
2022/01/30 02:39:15;;;;;;;29.17;7.90;;;;;;;6.30;100.00;102117.41;5015915;28;20172;-74
2022/01/30 02:41:41;;;;;;;32.93;8.10;;;;;;;6.53;100.00;102146.47;5013387;28;20464;-73
2022/01/30 02:44:25;;;;;;;34.00;7.80;;;;;;;6.33;100.00;102126.94;5011573;28;20489;-72
2022/01/30 02:46:53;;;;;;;34.10;7.93;;;;;;;6.76;100.00;102179.84;5014506;28;20700;-74
2022/01/30 02:51:54;;;;;;;33.13;8.87;;;;;;;6.63;100.00;102205.97;5009262;28;20451;-74
2022/01/30 02:54:21;;;;;;;44.83;9.97;;;;;;;6.56;100.00;102219.00;5016402;28;21180;-73
2022/01/30 02:56:47;;;;;;;39.93;8.47;;;;;;;5.96;100.00;102148.06;5014321;28;20819;-73
2022/01/30 02:59:14;;;;;;;33.00;8.20;;;;;;;6.08;100.00;102221.56;5014130;28;20438;-76
2022/01/30 03:01:40;;;;;;;32.33;7.70;;;;;;;5.12;100.00;102125.16;5011137;28;20527;-75
2022/01/30 03:04:06;;;;;;;32.07;6.90;;;;;;;5.23;100.00;102174.75;5014155;28;20446;-74
2022/01/30 03:06:31;;;;;;;28.87;5.20;;;;;;;5.52;100.00;102190.06;5012174;28;20443;-73
2022/01/30 03:08:57;;;;;;;30.57;6.33;;;;;;;5.51;100.00;102193.69;5012507;28;20463;-73
2022/01/30 03:11:23;;;;;;;33.33;6.40;;;;;;;5.82;100.00;102210.50;5012286;28;20195;-74
2022/01/30 03:13:48;;;;;;;28.30;6.70;;;;;;;5.81;100.00;102184.84;5012888;28;20223;-75
2022/01/30 03:16:14;;;;;;;26.90;6.53;;;;;;;5.43;100.00;102135.81;5010779;28;20431;-74
2022/01/30 03:18:40;;;;;;;24.70;6.57;;;;;;;5.70;100.00;102172.50;5013769;28;20672;-78
2022/01/30 03:21:07;;;;;;;20.10;6.20;;;;;;;5.96;100.00;102226.16;5011770;28;20215;-75
2022/01/30 03:23:36;;;;;;;30.20;7.10;;;;;;;6.11;100.00;102219.47;5013084;28;20466;-75
2022/01/30 03:26:02;;;;;;;30.83;7.43;;;;;;;6.13;100.00;102214.00;5012671;28;20440;-75
2022/01/30 03:28:28;;;;;;;37.90;8.40;;;;;;;6.05;100.00;102230.69;5012540;28;20971;-74
2022/01/30 03:30:58;;;;;;;34.90;7.13;;;;;;;6.31;100.00;102240.84;5008336;28;20400;-76
2022/01/30 03:33:24;;;;;;;34.60;8.57;;;;;;;5.68;100.00;102136.34;5004528;28;20817;-75
2022/01/30 03:35:50;;;;;;;29.97;6.87;;;;;;;6.39;100.00;102266.81;5004588;28;20457;-77
2022/01/30 03:38:15;;;;;;;39.80;8.50;;;;;;;6.23;100.00;102268.16;5012166;28;20573;-74
2022/01/30 03:40:43;;;;;;;39.40;8.73;;;;;;;6.08;100.00;102256.22;5014240;28;20793;-74
2022/01/30 03:43:09;;;;;;;36.20;9.13;;;;;;;6.22;100.00;102262.97;5009744;28;20254;-76
2022/01/30 03:45:34;;;;;;;35.60;7.67;;;;;;;5.88;100.00;102181.53;5006458;28;20839;-76
2022/01/30 03:48:00;;;;;;;36.23;8.53;;;;;;;5.14;100.00;102112.56;4993171;28;20577;-74
2022/01/30 03:50:25;;;;;;;38.67;9.10;;;;;;;5.63;100.00;102158.84;5009386;28;20292;-75
2022/01/30 03:52:51;;;;;;;47.10;9.23;;;;;;;5.63;100.00;102174.00;5007015;28;20201;-76
2022/01/30 03:55:16;;;;;;;38.50;9.87;;;;;;;6.05;100.00;102259.13;5012706;28;20191;-73
2022/01/30 03:57:42;;;;;;;37.77;9.30;;;;;;;6.15;100.00;102261.81;5006159;28;20200;-72
2022/01/30 04:00:08;;;;;;;38.27;8.30;;;;;;;5.20;100.00;102103.22;5010824;28;20664;-73
2022/01/30 04:02:33;;;;;;;38.63;8.60;;;;;;;5.87;100.00;102206.47;5011840;28;20196;-74
2022/01/30 04:04:59;;;;;;;40.03;8.90;;;;;;;5.98;100.00;102224.19;5009169;28;20505;-76
2022/01/30 04:07:25;;;;;;;41.37;8.17;;;;;;;6.43;100.00;102277.06;5009398;28;20200;-74
2022/01/30 04:09:52;;;;;;;41.23;8.03;;;;;;;6.31;100.00;102288.81;5014101;28;20653;-75
2022/01/30 04:12:18;;;;;;;35.10;8.43;;;;;;;6.34;100.00;102278.72;5009733;28;20443;-76
2022/01/30 04:14:44;;;;;;;46.50;9.13;;;;;;;6.48;100.00;102280.16;5012661;28;20920;-75
2022/01/30 04:17:10;;;;;;;32.73;8.50;;;;;;;6.30;100.00;102247.97;5011433;28;20443;-74
2022/01/30 04:19:37;;;;;;;36.27;8.93;;;;;;;5.34;100.00;102124.13;5011061;28;20458;-76
2022/01/30 04:22:03;;;;;;;42.43;9.60;;;;;;;5.61;100.00;102165.28;5007660;28;20192;-74
2022/01/30 04:24:28;;;;;;;49.57;10.27;;;;;;;5.53;100.00;102152.66;5011208;28;20472;-74
2022/01/30 04:26:54;;;;;;;41.07;8.07;;;;;;;5.55;100.00;102168.50;5010587;28;20450;-75
2022/01/30 04:29:19;;;;;;;42.13;9.37;;;;;;;5.49;100.00;102142.41;5005257;28;20234;-74
2022/01/30 04:31:48;;;;;;;38.00;9.03;;;;;;;6.40;100.00;102300.50;5012424;28;20199;-72
2022/01/30 04:34:13;;;;;;;44.93;11.73;;;;;;;6.14;100.00;102246.84;5011574;28;20227;-75
2022/01/30 04:36:44;;;;;;;42.60;9.23;;;;;;;6.08;100.00;102242.88;5008130;28;20451;-73
2022/01/30 04:39:31;;;;;;;40.30;9.70;;;;;;;6.44;100.00;102291.22;5008857;28;20196;-75
2022/01/30 04:57:45;;;;;;;28.20;6.40;;;;;;;6.01;100.00;102228.41;5014462;28;20178;-74
2022/01/30 05:08:03;;;;;;;35.00;7.20;;;;;;;6.27;100.00;102303.38;5015021;28;20663;-75
2022/01/30 05:10:29;;;;;;;47.60;8.17;;;;;;;6.15;100.00;102299.13;5014403;28;20470;-74
2022/01/30 05:12:57;;;;;;;26.53;6.90;;;;;;;6.14;100.00;102266.31;5010078;28;20455;-74
2022/01/30 05:15:23;;;;;;;35.30;6.90;;;;;;;6.55;100.00;102321.28;5013220;28;20653;-75
2022/01/30 05:17:48;;;;;;;35.23;7.87;;;;;;;6.40;100.00;102293.34;5017244;28;20509;-75
2022/01/30 05:20:15;;;;;;;30.27;6.33;;;;;;;6.52;100.00;102320.72;5015297;28;20949;-74
2022/01/30 05:22:40;;;;;;;33.93;6.70;;;;;;;5.79;100.00;102219.63;5014133;28;20684;-72
2022/01/30 05:25:06;;;;;;;31.63;6.50;;;;;;;6.22;100.00;102292.28;5015119;28;20951;-76
2022/01/30 05:27:32;;;;;;;41.33;7.07;;;;;;;6.41;100.00;102335.00;5013365;28;20450;-76
2022/01/30 05:29:58;;;;;;;27.60;6.07;;;;;;;5.56;100.00;102202.13;5013308;28;20885;-76
2022/01/30 05:32:23;;;;;;;27.47;5.97;;;;;;;6.04;100.00;102265.44;5016350;28;20185;-76
2022/01/30 05:34:49;;;;;;;20.00;5.40;;;;;;;5.40;100.00;102234.53;5011162;28;20250;-75
2022/01/30 05:37:18;;;;;;;29.33;5.90;;;;;;;6.34;100.00;102328.53;5013932;28;20261;-75
2022/01/30 05:39:45;;;;;;;35.17;6.60;;;;;;;6.07;100.00;102300.63;5011395;28;20239;-76
2022/01/30 05:42:12;;;;;;;32.20;7.03;;;;;;;6.26;100.00;102320.34;4997009;28;20440;-75
2022/01/30 05:44:47;;;;;;;32.60;8.10;;;;;;;4.68;100.00;102095.19;5014468;28;20467;-74
2022/01/30 05:47:21;;;;;;;30.77;6.80;;;;;;;6.45;100.00;102343.56;5005905;28;20463;-75
2022/01/30 05:49:48;;;;;;;40.00;8.03;;;;;;;6.45;100.00;102348.88;5012149;28;20542;-75
2022/01/30 05:52:13;;;;;;;31.60;6.77;;;;;;;6.18;100.00;102313.00;5009310;28;20459;-76
2022/01/30 05:54:39;;;;;;;28.87;6.60;;;;;;;6.00;100.00;102285.31;5009498;28;20467;-76
2022/01/30 05:57:04;;;;;;;37.63;7.23;;;;;;;6.30;100.00;102335.91;5010495;28;20188;-75
2022/01/30 05:59:30;;;;;;;21.73;5.80;;;;;;;6.46;100.00;102367.41;5006532;28;20470;-72
2022/01/30 06:01:55;;;;;;;24.50;5.50;;;;;;;6.36;100.00;102345.19;5010912;28;20653;-77
2022/01/30 06:04:20;;;;;;;35.80;6.80;;;;;;;5.95;100.00;102293.69;5012371;28;20214;-72
2022/01/30 06:06:51;;;;;;;31.17;7.40;;;;;;;6.41;100.00;102364.31;5012542;28;20283;-77
2022/01/30 06:11:42;;;;;;;29.67;6.70;;;;;;;6.43;100.00;102386.34;5012210;28;20479;-72
2022/01/30 06:14:07;;;;;;;30.13;6.90;;;;;;;5.96;100.00;102308.72;5011654;28;20217;-75
2022/01/30 06:16:33;;;;;;;31.27;8.10;;;;;;;6.30;100.00;102351.06;5014343;28;23986;-75
2022/01/30 06:18:58;;;;;;;23.33;7.43;;;;;;;6.33;100.00;102362.34;5015314;28;20212;-75
2022/01/30 06:21:23;;;;;;;37.53;7.63;;;;;;;5.97;100.00;102318.41;5011518;28;20192;-75
2022/01/30 06:23:49;;;;;;;34.17;6.93;;;;;;;6.42;100.00;102411.31;5011566;28;20824;-73
2022/01/30 06:26:14;;;;;;;22.10;5.80;;;;;;;6.05;100.00;102337.22;5013707;28;20188;-74
2022/01/30 06:28:40;;;;;;;33.20;7.50;;;;;;;5.78;100.00;102334.22;5008827;28;20334;-74
2022/01/30 06:31:05;;;;;;;24.57;6.63;;;;;;;6.43;100.00;102413.00;5009328;28;20275;-76
2022/01/30 06:33:31;;;;;;;27.43;8.20;;;;;;;5.70;100.00;102299.41;5009993;28;20213;-77
2022/01/30 06:35:56;;;;;;;27.23;6.30;;;;;;;6.44;100.00;102421.84;5009980;28;20200;-77
2022/01/30 06:38:21;;;;;;;38.13;6.80;;;;;;;5.56;100.00;102263.34;5017379;28;20219;-78
2022/01/30 06:40:47;;;;;;;25.23;5.70;;;;;;;5.55;100.00;102288.25;5015585;28;20195;-78
2022/01/30 06:43:12;;;;;;;17.60;5.70;;;;;;;5.75;100.00;102319.34;5007075;28;20282;-78
2022/01/30 06:45:37;;;;;;;22.33;5.10;;;;;;;5.30;100.00;102239.78;5015135;28;20215;-77
2022/01/30 06:48:03;;;;;;;14.40;4.80;;;;;;;5.96;100.00;102380.63;5013773;28;20232;-74
2022/01/30 06:50:29;;;;;;;24.40;5.90;;;;;;;6.04;100.00;102386.13;5006056;28;20216;-75
2022/01/30 06:52:54;;;;;;;29.63;6.17;;;;;;;6.14;100.00;102410.19;5010026;28;20304;-74
2022/01/30 06:55:19;;;;;;;26.20;5.43;;;;;;;5.75;100.00;102345.97;5007674;28;20767;-74
2022/01/30 06:57:46;;;;;;;27.77;5.40;;;;;;;6.26;100.00;102453.59;5015197;28;20307;-73
2022/01/30 07:00:13;;;;;;;26.83;6.10;;;;;;;6.24;100.00;102447.53;5011379;28;20176;-74
2022/01/30 07:02:39;;;;;;;22.70;5.60;;;;;;;6.29;100.00;102461.31;4997109;28;20439;-75
2022/01/30 07:05:04;;;;;;;24.27;6.50;;;;;;;6.38;100.00;102443.69;5016585;28;20460;-75
2022/01/30 07:07:30;;;;;;;27.87;7.07;;;;;;;6.28;100.00;102425.00;5009688;28;20246;-73
2022/01/30 07:09:56;;;;;;;27.33;7.00;;;;;;;6.28;100.00;102438.31;5009184;28;20558;-75
2022/01/30 07:12:21;;;;;;;23.33;6.17;;;;;;;6.38;100.00;102449.03;5011294;28;20284;-75
2022/01/30 07:14:47;;;;;;;25.60;6.70;;;;;;;6.30;100.00;102455.84;5016496;22;20723;-75
2022/01/30 07:17:12;;;;;;;28.37;6.40;;;;;;;6.05;100.00;102395.00;4971599;28;22404;-73
2022/01/30 07:19:38;;;;;;;28.20;6.37;;;;;;;5.65;100.00;102353.06;4975919;28;20653;-80
2022/01/30 07:22:03;;;;;;;42.03;8.17;;;;;;;6.20;100.00;102470.09;4969153;28;20187;-72
2022/01/30 07:24:29;;;;;;;25.17;6.90;;;;;;;6.35;100.00;102482.09;4973857;28;20276;-74
2022/01/30 07:26:54;;;;;;;33.73;7.30;;;;;;;6.42;100.00;102477.09;4974637;28;20853;-74
2022/01/30 07:29:20;;;;;;;27.00;5.87;;;;;;;6.33;100.00;102465.41;4975937;28;20211;-75
2022/01/30 07:31:45;;;;;;;30.03;7.27;;;;;;;5.54;100.00;102343.31;4970971;28;20185;-73
2022/01/30 07:34:11;;;;;;;28.00;7.50;;;;;;;5.77;100.00;102405.28;4976883;28;20289;-73
2022/01/30 07:36:37;;;;;;;29.53;6.87;;;;;;;6.43;100.00;102503.63;4971141;28;20198;-74
2022/01/30 07:39:08;;;;;;;36.37;8.40;;;;;;;6.30;100.00;102484.31;4975642;28;20272;-74
2022/01/30 07:41:34;;;;;;;31.57;7.20;;;;;;;5.93;100.00;102487.44;4968376;28;20457;-73
2022/01/30 07:44:01;;;;;;;24.60;6.40;;;;;;;5.91;100.00;102486.69;4965162;28;20460;-75
2022/01/30 07:46:28;;;;;;;27.00;5.40;;;;;;;5.50;100.00;102405.78;4967977;28;20461;-74
2022/01/30 07:48:53;;;;;;;33.77;6.50;;;;;;;5.98;100.00;102490.53;4974512;28;20564;-74
2022/01/30 07:51:19;;;;;;;23.53;5.83;;;;;;;5.53;100.00;102412.66;4970439;28;20491;-76
2022/01/30 07:53:44;;;;;;;36.20;7.90;;;;;;;5.96;100.00;102491.63;4961070;28;20205;-76
2022/01/30 07:56:09;;;;;;;35.30;8.43;;;;;;;5.63;100.00;102433.03;4976538;28;20632;-75
2022/01/30 07:58:35;;;;;;;30.27;7.33;;;;;;;5.27;100.00;102369.59;4975862;28;20313;-76
2022/01/30 08:01:00;;;;;;;35.80;7.77;;;;;;;5.41;100.00;102370.13;4965541;28;20359;-74
2022/01/30 08:03:26;;;;;;;31.23;6.80;;;;;;;5.80;100.00;102415.66;4970662;28;20222;-73
2022/01/30 08:05:51;;;;;;;31.70;7.50;;;;;;;5.76;100.00;102389.44;4975366;28;20208;-75
2022/01/30 08:08:16;;;;;;;31.47;8.53;;;;;;;6.27;100.00;102485.41;4964274;28;20375;-73
2022/01/30 08:10:42;;;;;;;28.63;5.53;;;;;;;5.73;100.00;102384.34;4971199;28;20271;-76
2022/01/30 08:13:07;;;;;;;32.93;7.57;;;;;;;6.23;100.00;102456.50;4969963;28;20205;-76
2022/01/30 08:15:33;;;;;;;33.97;7.03;;;;;;;6.22;100.00;102481.44;4961753;28;20197;-72
2022/01/30 08:18:02;;;;;;;56.33;8.93;;;;;;;6.39;100.00;102472.03;4967312;28;20192;-76
2022/01/30 08:20:28;;;;;;;47.67;8.60;;;;;;;5.65;100.00;102372.53;4963337;28;20269;-77
2022/01/30 08:22:55;;;;;;;44.07;7.10;;;;;;;6.21;100.00;102447.78;4969563;28;20444;-75
2022/01/30 08:25:23;;;;;;;37.93;7.57;;;;;;;5.89;100.00;102398.91;4970235;28;20522;-78
2022/01/30 08:27:52;;;;;;;39.53;7.00;;;;;;;6.29;100.00;102470.16;4968516;28;20634;-78
2022/01/30 08:30:18;;;;;;;24.80;7.00;;;;;;;6.27;100.00;102457.94;4969517;28;20560;-74
2022/01/30 08:32:46;;;;;;;34.20;6.90;;;;;;;5.75;100.00;102366.44;4962890;28;20495;-77
2022/01/30 08:35:15;;;;;;;40.10;8.17;;;;;;;6.08;100.00;102459.50;4964116;28;20216;-76
2022/01/30 08:37:40;;;;;;;29.20;7.10;;;;;;;6.06;100.00;102448.13;4961107;28;20444;-74
2022/01/30 08:40:09;;;;;;;35.50;6.67;;;;;;;6.08;100.00;102443.53;4970564;28;20982;-74
2022/01/30 08:42:35;;;;;;;30.47;7.00;;;;;;;6.03;100.00;102410.25;4970048;28;20198;-74
2022/01/30 08:45:05;;;;;;;38.17;6.83;;;;;;;6.34;100.00;102481.28;4969976;28;20499;-75
2022/01/30 08:47:30;;;;;;;29.63;7.40;;;;;;;6.41;100.00;102500.25;4968835;28;20442;-73
2022/01/30 08:49:56;;;;;;;35.27;7.90;;;;;;;5.69;100.00;102388.25;4971791;28;20470;-76
2022/01/30 08:52:21;;;;;;;25.67;6.80;;;;;;;6.27;100.00;102473.91;4975886;28;20182;-75
2022/01/30 08:54:49;;;;;;;34.83;7.50;;;;;;;6.16;100.00;102450.00;4974748;28;20561;-73
2022/01/30 08:57:18;;;;;;;43.97;9.30;;;;;;;6.56;100.00;102508.75;4972003;28;20186;-73
2022/01/30 08:59:44;;;;;;;33.70;7.90;;;;;;;5.93;100.00;102435.94;4973047;28;20441;-73
2022/01/30 09:02:09;;;;;;;33.80;8.03;;;;;;;6.21;100.00;102469.13;4962612;28;20475;-75
2022/01/30 09:04:35;;;;;;;37.37;7.00;;;;;;;6.57;100.00;102529.97;4973388;28;20213;-75
2022/01/30 09:07:01;;;;;;;31.43;7.97;;;;;;;6.55;100.00;102526.56;4967319;28;20190;-74
2022/01/30 09:09:26;;;;;;;39.23;7.53;;;;;;;6.63;100.00;102547.25;4966388;28;20209;-75
2022/01/30 09:11:52;;;;;;;26.53;7.27;;;;;;;6.47;100.00;102557.53;4977675;28;20719;-75
2022/01/30 09:14:18;;;;;;;27.43;6.27;;;;;;;6.08;100.00;102485.31;4969328;28;20678;-76
2022/01/30 09:16:45;;;;;;;23.70;5.87;;;;;;;6.47;100.00;102538.84;4972364;28;20609;-74
2022/01/30 09:19:11;;;;;;;28.60;6.27;;;;;;;6.32;100.00;102493.03;4970669;28;21376;-77
2022/01/30 09:21:36;;;;;;;19.13;5.43;;;;;;;6.40;100.00;102506.56;4973789;28;20526;-73
2022/01/30 09:24:02;;;;;;;20.17;4.80;;;;;;;6.30;100.00;102494.97;4964839;28;20202;-75
2022/01/30 09:26:27;;;;;;;23.47;5.80;;;;;;;6.41;100.00;102491.41;4972275;28;20205;-81
2022/01/30 09:28:53;;;;;;;25.43;5.40;;;;;;;6.44;100.00;102488.47;4974496;28;20202;-78
2022/01/30 09:31:18;;;;;;;20.90;6.00;;;;;;;6.70;100.00;102537.72;4977253;28;20580;-77
2022/01/30 09:33:44;;;;;;;31.37;6.27;;;;;;;6.38;100.00;102484.50;4979115;28;20225;-75
2022/01/30 09:36:09;;;;;;;21.00;5.50;;;;;;;6.38;100.00;102499.66;4976065;28;20186;-73
2022/01/30 09:38:35;;;;;;;26.63;5.73;;;;;;;6.77;100.00;102540.75;4975205;28;20190;-73
2022/01/30 09:41:04;;;;;;;17.50;5.50;;;;;;;6.81;100.00;102558.16;4975495;28;20277;-72
2022/01/30 09:43:30;;;;;;;27.87;6.67;;;;;;;6.47;100.00;102545.03;4979391;28;20217;-75
2022/01/30 09:45:56;;;;;;;29.77;6.20;;;;;;;5.52;100.00;102363.88;4971195;28;20940;-84
2022/01/30 09:48:24;;;;;;;27.40;6.10;;;;;;;6.79;100.00;102563.59;4966115;28;20209;-75
2022/01/30 09:50:50;;;;;;;27.80;6.90;;;;;;;6.66;100.00;102508.81;4968685;28;20441;-75
2022/01/30 09:53:16;;;;;;;29.60;6.33;;;;;;;6.96;100.00;102553.31;4960298;28;20444;-73
2022/01/30 09:55:41;;;;;;;35.90;7.97;;;;;;;6.42;100.00;102461.09;4978340;28;20453;-74
2022/01/30 09:58:07;;;;;;;31.77;5.80;;;;;;;7.05;100.00;102576.53;4956584;28;20669;-73
2022/01/30 10:00:34;;;;;;;30.57;5.57;;;;;;;7.06;100.00;102590.72;4975378;28;20182;-74
2022/01/30 10:02:59;;;;;;;28.67;7.30;;;;;;;6.15;100.00;102474.97;4968675;28;20449;-74
2022/01/30 10:05:25;;;;;;;31.90;7.57;;;;;;;6.64;100.00;102594.25;4966129;28;20560;-73
2022/01/30 10:07:54;;;;;;;29.20;7.50;;;;;;;6.92;100.00;102631.94;4983026;28;20713;-73
2022/01/30 10:10:23;;;;;;;31.67;7.83;;;;;;;6.98;100.00;102639.41;4967193;28;20489;-75
2022/01/30 10:13:17;;;;;;;34.50;7.10;;;;;;;6.99;100.00;102641.94;4972524;28;20447;-76
2022/01/30 10:15:50;;;;;;;31.80;8.27;;;;;;;6.98;100.00;102656.25;4971116;28;20467;-75
2022/01/30 10:18:16;;;;;;;41.10;9.57;;;;;;;6.81;100.00;102670.19;4967959;28;20453;-74
2022/01/30 10:20:42;;;;;;;38.83;9.40;;;;;;;6.38;100.00;102604.44;4974472;28;20878;-74
2022/01/30 10:23:09;;;;;;;30.77;7.23;;;;;;;6.50;100.00;102595.41;4971854;28;20445;-75
2022/01/30 10:25:52;;;;;;;36.97;9.20;;;;;;;5.70;100.00;102504.41;4970099;28;20214;-73
2022/01/30 10:28:30;;;;;;;33.93;7.80;;;;;;;7.00;100.00;102691.66;4969028;28;20763;-73
2022/01/30 10:31:05;;;;;;;35.63;7.77;;;;;;;6.87;100.00;102632.31;4981476;28;20855;-77
2022/01/30 10:33:49;;;;;;;33.50;9.77;;;;;;;7.28;100.00;102694.63;4966211;28;20472;-74
2022/01/30 10:36:26;;;;;;;33.77;7.33;;;;;;;7.40;100.00;102687.38;4973460;28;20441;-75
2022/01/30 10:39:00;;;;;;;32.53;8.00;;;;;;;7.14;100.00;102654.94;4965199;28;20507;-74
2022/01/30 10:41:35;;;;;;;30.03;7.70;;;;;;;7.18;100.00;102693.75;4969351;28;20491;-74
2022/01/30 10:44:05;;;;;;;30.77;7.57;;;;;;;7.35;100.00;102684.28;4961984;28;21637;-79
2022/01/30 10:46:33;;;;;;;30.73;7.50;;;;;;;7.25;100.00;102652.19;4969103;28;20449;-78
2022/01/30 10:49:07;;;;;;;26.87;6.77;;;;;;;7.36;100.00;102672.63;4970328;28;20464;-77
2022/01/30 10:51:33;;;;;;;39.10;7.87;;;;;;;6.88;100.00;102604.66;4968416;28;20444;-79
2022/01/30 10:54:10;;;;;;;30.13;7.10;;;;;;;7.44;100.00;102695.00;4971476;28;20511;-75
2022/01/30 10:56:37;;;;;;;42.23;7.50;;;;;;;6.60;100.00;102544.84;4970384;28;20433;-75
2022/01/30 10:59:09;;;;;;;32.57;7.03;;;;;;;7.45;100.00;102695.84;4962046;28;20904;-76
2022/01/30 11:01:36;;;;;;;34.03;6.73;;;;;;;7.00;100.00;102646.31;4969209;28;20455;-74
2022/01/30 11:04:02;;;;;;;22.23;6.10;;;;;;;7.23;100.00;102697.72;4972665;28;20567;-70
2022/01/30 11:06:29;;;;;;;30.87;7.20;;;;;;;6.76;100.00;102605.72;4971812;28;20478;-76
2022/01/30 11:09:05;;;;;;;32.20;8.20;;;;;;;7.33;100.00;102670.22;4969946;28;20668;-78
2022/01/30 11:11:39;;;;;;;33.10;7.40;;;;;;;7.14;100.00;102636.25;4962684;28;20463;-77
2022/01/30 11:19:21;;;;;;;28.07;6.33;;;;;;;7.98;100.00;102700.13;4952062;28;20282;-81
2022/01/30 11:21:51;;;;;;;40.13;8.40;;;;;;;7.70;100.00;102662.53;4957932;28;20442;-75
2022/01/30 11:24:19;;;;;;;38.03;7.63;;;;;;;7.96;100.00;102702.13;4972872;28;20465;-75
2022/01/30 11:26:45;;;;;;;26.90;6.33;;;;;;;7.93;100.00;102712.09;4977542;28;20919;-74
2022/01/30 11:29:13;;;;;;;32.60;7.10;;;;;;;6.85;100.00;102580.91;4975257;28;20476;-74
2022/01/30 11:31:39;;;;;;;29.53;6.40;;;;;;;7.35;100.00;102615.72;4971479;28;20472;-77
2022/01/30 11:34:07;;;;;;;27.47;6.40;;;;;;;8.00;100.00;102706.19;4978157;28;20496;-77
2022/01/30 11:36:37;;;;;;;33.07;8.10;;;;;;;7.20;100.00;102625.91;4973727;28;20227;-74
2022/01/30 11:39:04;;;;;;;38.13;7.30;;;;;;;7.81;100.00;102713.19;4974393;28;20445;-74
2022/01/30 11:41:31;;;;;;;30.77;7.37;;;;;;;7.29;100.00;102623.41;4976337;28;20440;-75
2022/01/30 11:44:18;;;;;;;32.57;7.10;;;;;;;7.84;100.00;102706.69;4971659;28;20476;-75
2022/01/30 11:46:56;;;;;;;28.83;7.20;;;;;;;8.17;100.00;102713.56;4976267;28;20985;-75
2022/01/30 11:49:24;;;;;;;32.10;7.63;;;;;;;7.79;100.00;102666.22;4991701;28;20494;-73
2022/01/30 11:51:52;;;;;;;33.33;7.70;;;;;;;7.94;100.00;102707.59;4976334;28;20440;-74
2022/01/30 11:54:36;;;;;;;34.43;7.43;;;;;;;8.08;100.00;102722.41;4971934;28;20461;-75
2022/01/30 11:57:04;;;;;;;34.30;8.33;;;;;;;7.92;100.00;102705.03;4975528;28;20449;-75
2022/01/30 11:59:38;;;;;;;33.43;7.20;;;;;;;8.08;100.00;102676.97;4974224;28;20445;-76
2022/01/30 12:02:23;;;;;;;37.23;7.80;;;;;;;8.18;100.00;102640.41;4973319;28;21049;-77
2022/01/30 12:05:09;;;;;;;40.83;7.80;;;;;;;8.48;100.00;102714.34;4972975;28;20531;-75
2022/01/30 12:07:42;;;;;;;30.40;7.20;;;;;;;8.39;100.00;102715.19;4974085;28;20455;-82
2022/01/30 12:10:24;;;;;;;29.80;6.87;;;;;;;8.51;100.00;102721.25;4970986;28;20464;-75
2022/01/30 12:13:10;;;;;;;25.17;6.60;;;;;;;8.60;100.00;102713.22;4975904;28;20959;-73
2022/01/30 12:15:43;;;;;;;28.43;6.63;;;;;;;7.95;100.00;102714.63;4977123;28;20461;-75
2022/01/30 12:18:13;;;;;;;23.03;5.30;;;;;;;7.79;100.00;102709.78;4974733;28;20425;-75
2022/01/30 12:21:05;;;;;;;20.07;5.97;;;;;;;7.91;100.00;102714.03;4974787;28;20483;-74